createdAt,value
2018-04-30T00:00:08.456Z,991.00
2018-04-30T00:01:08.439Z,990.96
2018-04-30T00:02:08.426Z,990.95
2018-04-30T00:03:08.409Z,990.91
2018-04-30T00:04:08.399Z,990.93
2018-04-30T00:05:08.375Z,991.04
2018-04-30T00:06:08.363Z,991.11
2018-04-30T00:07:08.345Z,991.23
2018-04-30T00:08:08.323Z,991.32
2018-04-30T00:09:08.309Z,991.25
2018-04-30T00:10:08.300Z,991.25
2018-04-30T00:11:08.285Z,991.26
2018-04-30T00:12:08.263Z,991.25
2018-04-30T00:13:08.244Z,991.25
2018-04-30T00:14:08.228Z,991.33
2018-04-30T00:15:08.220Z,991.30
2018-04-30T00:16:08.197Z,991.30
2018-04-30T00:17:08.183Z,991.28
2018-04-30T00:18:08.173Z,991.27
2018-04-30T00:19:08.155Z,991.25
2018-04-30T00:20:08.135Z,991.38
2018-04-30T00:21:08.116Z,991.47
2018-04-30T00:22:08.105Z,991.64
2018-04-30T00:23:08.099Z,991.89
2018-04-30T00:24:08.082Z,992.02
2018-04-30T00:25:08.055Z,992.10
2018-04-30T00:26:08.039Z,992.10
2018-04-30T00:27:08.024Z,992.04
2018-04-30T00:28:08.008Z,991.86
2018-04-30T00:29:07.991Z,991.62
2018-04-30T00:30:07.976Z,991.47
2018-04-30T00:31:07.965Z,991.25
2018-04-30T00:32:07.944Z,990.86
2018-04-30T00:33:07.937Z,990.56
2018-04-30T00:34:07.920Z,990.47
2018-04-30T00:35:07.897Z,990.60
2018-04-30T00:36:07.883Z,991.43
2018-04-30T00:37:07.865Z,992.19
2018-04-30T00:38:07.853Z,992.59
2018-04-30T00:39:07.831Z,992.51
2018-04-30T00:40:07.836Z,992.30
2018-04-30T00:41:07.801Z,991.99
2018-04-30T00:42:07.787Z,991.84
2018-04-30T00:43:07.769Z,991.97
2018-04-30T00:44:07.754Z,992.22
2018-04-30T00:45:07.734Z,992.38
2018-04-30T00:46:07.725Z,992.44
2018-04-30T00:47:07.712Z,992.41
2018-04-30T00:48:07.684Z,992.44
2018-04-30T00:49:07.670Z,992.50
2018-04-30T00:50:07.659Z,992.58
2018-04-30T00:51:07.636Z,992.65
2018-04-30T00:52:07.624Z,992.46
2018-04-30T00:53:07.605Z,992.38
2018-04-30T00:54:07.593Z,992.34
2018-04-30T00:55:07.573Z,992.32
2018-04-30T00:56:07.556Z,992.25
2018-04-30T00:57:07.539Z,992.18
2018-04-30T00:58:07.524Z,992.04
2018-04-30T00:59:07.575Z,991.93
2018-04-30T01:00:07.498Z,991.92
2018-04-30T01:01:07.485Z,991.89
2018-04-30T01:02:07.461Z,991.84
2018-04-30T01:03:07.439Z,991.74
2018-04-30T01:04:07.429Z,991.61
2018-04-30T01:05:07.425Z,991.46
2018-04-30T01:06:07.390Z,991.42
2018-04-30T01:07:07.377Z,991.29
2018-04-30T01:08:07.354Z,991.19
2018-04-30T01:09:07.338Z,991.11
2018-04-30T01:10:07.330Z,991.03
2018-04-30T01:11:07.305Z,991.04
2018-04-30T01:12:07.291Z,991.01
2018-04-30T01:13:07.275Z,990.95
2018-04-30T01:14:07.256Z,990.81
2018-04-30T01:15:07.237Z,990.77
2018-04-30T01:16:07.220Z,990.68
2018-04-30T01:17:07.203Z,990.57
2018-04-30T01:18:07.187Z,990.52
2018-04-30T01:19:07.169Z,990.35
2018-04-30T01:20:07.159Z,990.33
2018-04-30T01:21:07.139Z,990.26
2018-04-30T01:22:07.119Z,990.24
2018-04-30T01:23:07.103Z,990.25
2018-04-30T01:24:07.085Z,990.24
2018-04-30T01:25:07.072Z,990.22
2018-04-30T01:26:07.049Z,990.19
2018-04-30T01:27:07.038Z,990.22
2018-04-30T01:28:07.015Z,990.17
2018-04-30T01:29:06.999Z,990.13
2018-04-30T01:30:06.979Z,990.08
2018-04-30T01:31:06.964Z,990.04
2018-04-30T01:32:06.949Z,990.10
2018-04-30T01:33:06.930Z,990.14
2018-04-30T01:34:06.924Z,990.13
2018-04-30T01:35:06.899Z,990.09
2018-04-30T01:36:06.879Z,990.12
2018-04-30T01:37:06.863Z,990.16
2018-04-30T01:38:06.848Z,990.12
2018-04-30T01:39:06.829Z,990.13
2018-04-30T01:40:06.813Z,990.12
2018-04-30T01:41:06.798Z,990.13
2018-04-30T01:42:06.777Z,990.11
2018-04-30T01:43:06.760Z,990.08
2018-04-30T01:44:06.746Z,990.07
2018-04-30T01:45:06.730Z,990.11
2018-04-30T01:46:06.709Z,990.08
2018-04-30T01:47:06.691Z,990.08
2018-04-30T01:48:06.674Z,990.06
2018-04-30T01:49:06.659Z,990.09
2018-04-30T01:50:06.642Z,990.15
2018-04-30T01:51:06.626Z,990.15
2018-04-30T01:52:06.606Z,990.20
2018-04-30T01:53:06.588Z,990.24
2018-04-30T01:54:06.572Z,990.26
2018-04-30T01:55:06.571Z,990.24
2018-04-30T01:56:06.540Z,990.18
2018-04-30T01:57:06.525Z,990.16
2018-04-30T01:58:06.507Z,990.14
2018-04-30T01:59:06.489Z,990.10
2018-04-30T02:00:06.475Z,990.06
2018-04-30T02:01:06.450Z,990.09
2018-04-30T02:02:06.439Z,990.03
2018-04-30T02:03:06.421Z,990.07
2018-04-30T02:04:06.406Z,990.07
2018-04-30T02:05:06.391Z,990.06
2018-04-30T02:06:06.368Z,990.01
2018-04-30T02:07:06.354Z,990.00
2018-04-30T02:08:06.333Z,989.99
2018-04-30T02:09:06.323Z,990.06
2018-04-30T02:10:07.107Z,989.99
2018-04-30T02:11:06.288Z,990.01
2018-04-30T02:12:06.268Z,989.99
2018-04-30T02:13:06.251Z,990.03
2018-04-30T02:14:06.234Z,990.05
2018-04-30T02:15:06.217Z,990.08
2018-04-30T02:16:06.200Z,990.07
2018-04-30T02:17:06.185Z,990.12
2018-04-30T02:18:06.164Z,990.10
2018-04-30T02:19:06.150Z,990.11
2018-04-30T02:20:06.132Z,990.08
2018-04-30T02:21:06.117Z,990.01
2018-04-30T02:22:06.099Z,989.98
2018-04-30T02:23:06.086Z,989.90
2018-04-30T02:24:06.067Z,989.88
2018-04-30T02:25:06.049Z,989.87
2018-04-30T02:26:06.028Z,989.88
2018-04-30T02:27:06.016Z,989.90
2018-04-30T02:28:06.010Z,989.88
2018-04-30T02:29:05.979Z,989.83
2018-04-30T02:30:05.969Z,989.83
2018-04-30T02:31:05.958Z,989.79
2018-04-30T02:32:05.926Z,989.84
2018-04-30T02:33:05.910Z,989.85
2018-04-30T02:34:05.899Z,989.85
2018-04-30T02:35:05.885Z,989.85
2018-04-30T02:36:05.866Z,989.85
2018-04-30T02:37:05.847Z,989.88
2018-04-30T02:38:05.829Z,989.91
2018-04-30T02:39:05.810Z,989.91
2018-04-30T02:40:05.800Z,989.89
2018-04-30T02:41:05.775Z,989.93
2018-04-30T02:42:05.763Z,989.88
2018-04-30T02:43:05.744Z,989.93
2018-04-30T02:44:05.725Z,989.91
2018-04-30T02:45:05.710Z,989.93
2018-04-30T02:46:05.690Z,989.92
2018-04-30T02:47:05.681Z,989.94
2018-04-30T02:48:05.657Z,989.94
2018-04-30T02:49:05.639Z,989.92
2018-04-30T02:50:05.632Z,989.92
2018-04-30T02:51:05.610Z,989.96
2018-04-30T02:52:05.592Z,989.92
2018-04-30T02:53:05.578Z,989.91
2018-04-30T02:54:05.561Z,989.94
2018-04-30T02:55:05.540Z,989.98
2018-04-30T02:56:05.526Z,989.97
2018-04-30T02:57:05.512Z,990.02
2018-04-30T02:58:05.492Z,989.98
2018-04-30T02:59:05.477Z,989.97
2018-04-30T03:00:05.461Z,989.95
2018-04-30T03:01:05.434Z,989.97
2018-04-30T03:02:05.428Z,989.97
2018-04-30T03:03:05.409Z,990.01
2018-04-30T03:04:05.394Z,990.02
2018-04-30T03:05:05.374Z,989.99
2018-04-30T03:06:05.359Z,990.00
2018-04-30T03:07:05.336Z,989.98
2018-04-30T03:08:05.325Z,989.94
2018-04-30T03:09:05.301Z,989.96
2018-04-30T03:10:05.286Z,989.94
2018-04-30T03:11:05.270Z,990.00
2018-04-30T03:12:05.255Z,990.00
2018-04-30T03:13:05.240Z,990.02
2018-04-30T03:14:05.224Z,990.04
2018-04-30T03:15:05.222Z,990.01
2018-04-30T03:16:05.200Z,989.98
2018-04-30T03:17:05.169Z,989.96
2018-04-30T03:18:05.154Z,989.95
2018-04-30T03:19:05.182Z,989.97
2018-04-30T03:20:05.127Z,989.92
2018-04-30T03:21:05.104Z,989.89
2018-04-30T03:22:05.089Z,989.81
2018-04-30T03:23:05.074Z,989.78
2018-04-30T03:24:05.059Z,989.76
2018-04-30T03:25:05.039Z,989.73
2018-04-30T03:26:05.018Z,989.73
2018-04-30T03:27:05.006Z,989.67
2018-04-30T03:28:04.992Z,989.68
2018-04-30T03:29:04.971Z,989.62
2018-04-30T03:30:04.952Z,989.63
2018-04-30T03:31:04.937Z,989.65
2018-04-30T03:32:04.922Z,989.63
2018-04-30T03:33:04.905Z,989.60
2018-04-30T03:34:04.887Z,989.63
2018-04-30T03:35:04.876Z,989.66
2018-04-30T03:36:04.862Z,989.68
2018-04-30T03:37:04.839Z,989.68
2018-04-30T03:38:04.819Z,989.69
2018-04-30T03:39:04.812Z,989.70
2018-04-30T03:40:04.786Z,989.63
2018-04-30T03:41:04.771Z,989.62
2018-04-30T03:42:04.764Z,989.68
2018-04-30T03:43:04.738Z,989.70
2018-04-30T03:44:04.717Z,989.71
2018-04-30T03:45:04.707Z,989.69
2018-04-30T03:46:04.689Z,989.73
2018-04-30T03:47:04.676Z,989.76
2018-04-30T03:48:04.653Z,989.80
2018-04-30T03:49:04.640Z,989.84
2018-04-30T03:50:04.619Z,989.89
2018-04-30T03:51:04.606Z,989.94
2018-04-30T03:52:04.587Z,989.92
2018-04-30T03:53:04.570Z,989.90
2018-04-30T03:54:04.557Z,989.87
2018-04-30T03:55:04.537Z,989.88
2018-04-30T03:56:04.519Z,989.86
2018-04-30T03:57:04.506Z,989.88
2018-04-30T03:58:04.489Z,989.86
2018-04-30T03:59:04.476Z,989.84
2018-04-30T04:00:04.458Z,989.85
2018-04-30T04:01:04.438Z,989.90
2018-04-30T04:02:04.421Z,989.91
2018-04-30T04:03:04.417Z,989.91
2018-04-30T04:04:04.396Z,989.93
2018-04-30T04:05:04.371Z,989.93
2018-04-30T04:06:04.358Z,990.02
2018-04-30T04:07:04.341Z,990.03
2018-04-30T04:08:04.323Z,990.10
2018-04-30T04:09:04.310Z,990.12
2018-04-30T04:10:04.292Z,990.16
2018-04-30T04:11:04.279Z,990.17
2018-04-30T04:12:04.253Z,990.18
2018-04-30T04:13:04.240Z,990.19
2018-04-30T04:14:04.228Z,990.23
2018-04-30T04:15:04.222Z,990.23
2018-04-30T04:16:04.199Z,990.22
2018-04-30T04:17:04.175Z,990.24
2018-04-30T04:18:04.157Z,990.23
2018-04-30T04:19:04.138Z,990.26
2018-04-30T04:20:04.122Z,990.26
2018-04-30T04:21:04.113Z,990.27
2018-04-30T04:22:04.089Z,990.22
2018-04-30T04:23:04.076Z,990.23
2018-04-30T04:24:04.060Z,990.28
2018-04-30T04:25:04.040Z,990.31
2018-04-30T04:26:04.025Z,990.33
2018-04-30T04:27:04.013Z,990.38
2018-04-30T04:28:03.989Z,990.39
2018-04-30T04:29:03.974Z,990.40
2018-04-30T04:30:03.964Z,990.44
2018-04-30T04:31:03.943Z,990.46
2018-04-30T04:32:03.926Z,990.50
2018-04-30T04:33:03.905Z,990.53
2018-04-30T04:34:03.889Z,990.58
2018-04-30T04:35:03.878Z,990.61
2018-04-30T04:36:03.862Z,990.60
2018-04-30T04:37:03.839Z,990.59
2018-04-30T04:38:03.830Z,990.59
2018-04-30T04:39:03.806Z,990.60
2018-04-30T04:40:03.788Z,990.54
2018-04-30T04:41:03.780Z,990.58
2018-04-30T04:42:03.756Z,990.58
2018-04-30T04:43:03.739Z,990.56
2018-04-30T04:44:03.729Z,990.52
2018-04-30T04:45:03.709Z,990.51
2018-04-30T04:46:03.688Z,990.53
2018-04-30T04:47:03.678Z,990.52
2018-04-30T04:48:03.660Z,990.51
2018-04-30T04:49:03.638Z,990.53
2018-04-30T04:50:03.621Z,990.52
2018-04-30T04:51:03.611Z,990.55
2018-04-30T04:52:03.593Z,990.57
2018-04-30T04:53:03.567Z,990.63
2018-04-30T04:54:03.551Z,990.64
2018-04-30T04:55:03.535Z,990.66
2018-04-30T04:56:03.519Z,990.72
2018-04-30T04:57:03.500Z,990.81
2018-04-30T04:58:03.488Z,990.83
2018-04-30T04:59:03.479Z,990.85
2018-04-30T05:00:03.449Z,990.82
2018-04-30T05:01:03.436Z,990.77
2018-04-30T05:02:03.417Z,990.78
2018-04-30T05:03:03.399Z,990.81
2018-04-30T05:04:03.379Z,990.79
2018-04-30T05:05:03.372Z,990.79
2018-04-30T05:06:03.349Z,990.79
2018-04-30T05:07:03.332Z,990.78
2018-04-30T05:08:03.319Z,990.81
2018-04-30T05:09:03.307Z,990.80
2018-04-30T05:10:03.290Z,990.83
2018-04-30T05:11:03.270Z,990.81
2018-04-30T05:12:03.245Z,990.80
2018-04-30T05:13:03.230Z,990.85
2018-04-30T05:14:03.216Z,990.84
2018-04-30T05:15:03.201Z,990.86
2018-04-30T05:16:03.179Z,990.89
2018-04-30T05:17:03.164Z,990.93
2018-04-30T05:18:03.149Z,990.93
2018-04-30T05:19:03.136Z,990.99
2018-04-30T05:20:03.114Z,991.02
2018-04-30T05:21:03.096Z,991.04
2018-04-30T05:22:03.078Z,990.99
2018-04-30T05:23:03.121Z,991.03
2018-04-30T05:24:03.046Z,991.00
2018-04-30T05:25:03.029Z,991.03
2018-04-30T05:26:03.009Z,990.98
2018-04-30T05:27:02.995Z,991.01
2018-04-30T05:28:02.978Z,991.04
2018-04-30T05:29:02.967Z,991.01
2018-04-30T05:30:02.942Z,991.03
2018-04-30T05:31:02.935Z,991.09
2018-04-30T05:32:02.907Z,991.10
2018-04-30T05:33:02.899Z,991.11
2018-04-30T05:34:02.876Z,991.11
2018-04-30T05:35:02.857Z,991.07
2018-04-30T05:36:02.842Z,991.05
2018-04-30T05:37:02.823Z,991.03
2018-04-30T05:38:02.809Z,991.02
2018-04-30T05:39:02.801Z,990.99
2018-04-30T05:40:02.770Z,991.00
2018-04-30T05:41:02.763Z,990.97
2018-04-30T05:42:02.741Z,990.96
2018-04-30T05:43:02.724Z,990.92
2018-04-30T05:44:02.712Z,990.93
2018-04-30T05:45:02.695Z,990.95
2018-04-30T05:46:02.669Z,990.96
2018-04-30T05:47:02.664Z,990.97
2018-04-30T05:48:02.652Z,990.96
2018-04-30T05:49:02.619Z,990.84
2018-04-30T05:50:02.608Z,990.98
2018-04-30T05:51:02.590Z,990.98
2018-04-30T05:52:02.569Z,991.02
2018-04-30T05:53:02.548Z,991.05
2018-04-30T05:54:02.534Z,991.09
2018-04-30T05:55:02.521Z,991.12
2018-04-30T05:56:02.499Z,991.17
2018-04-30T05:57:02.489Z,991.17
2018-04-30T05:58:02.465Z,991.19
2018-04-30T05:59:02.447Z,991.19
2018-04-30T06:00:02.429Z,991.18
2018-04-30T06:01:02.416Z,991.17
2018-04-30T06:02:02.403Z,991.16
2018-04-30T06:03:02.383Z,991.19
2018-04-30T06:04:02.361Z,991.15
2018-04-30T06:05:02.346Z,991.07
2018-04-30T06:06:02.330Z,991.10
2018-04-30T06:07:02.317Z,991.14
2018-04-30T06:08:02.298Z,991.13
2018-04-30T06:09:02.282Z,991.11
2018-04-30T06:10:02.271Z,991.14
2018-04-30T06:11:02.242Z,991.20
2018-04-30T06:12:02.227Z,991.19
2018-04-30T06:13:02.210Z,991.16
2018-04-30T06:14:02.195Z,991.20
2018-04-30T06:15:02.181Z,991.21
2018-04-30T06:16:02.196Z,991.26
2018-04-30T06:17:02.140Z,991.27
2018-04-30T06:18:02.127Z,991.23
2018-04-30T06:19:02.107Z,991.29
2018-04-30T06:20:02.093Z,991.22
2018-04-30T06:21:02.080Z,991.35
2018-04-30T06:22:02.061Z,991.45
2018-04-30T06:23:02.037Z,991.48
2018-04-30T06:24:02.034Z,991.53
2018-04-30T06:25:02.009Z,991.52
2018-04-30T06:26:01.992Z,991.57
2018-04-30T06:27:01.969Z,991.53
2018-04-30T06:28:01.953Z,991.48
2018-04-30T06:29:01.936Z,991.47
2018-04-30T06:30:01.921Z,991.46
2018-04-30T06:31:01.901Z,991.56
2018-04-30T06:32:01.888Z,991.56
2018-04-30T06:33:01.864Z,991.58
2018-04-30T06:34:01.849Z,991.61
2018-04-30T06:35:01.835Z,991.58
2018-04-30T06:36:01.820Z,991.61
2018-04-30T06:37:01.810Z,991.60
2018-04-30T06:38:01.784Z,991.59
2018-04-30T06:39:01.768Z,991.60
2018-04-30T06:40:01.746Z,991.62
2018-04-30T06:41:01.736Z,991.60
2018-04-30T06:42:01.724Z,991.60
2018-04-30T06:43:01.698Z,991.66
2018-04-30T06:44:01.687Z,991.69
2018-04-30T06:45:01.662Z,991.70
2018-04-30T06:46:01.648Z,991.73
2018-04-30T06:47:01.628Z,991.70
2018-04-30T06:48:01.609Z,991.67
2018-04-30T06:49:01.596Z,991.58
2018-04-30T06:50:01.579Z,991.66
2018-04-30T06:51:01.559Z,991.61
2018-04-30T06:52:01.542Z,991.65
2018-04-30T06:53:01.526Z,991.57
2018-04-30T06:54:01.509Z,991.59
2018-04-30T06:55:01.493Z,991.60
2018-04-30T06:56:01.478Z,991.53
2018-04-30T06:57:01.458Z,991.56
2018-04-30T06:58:01.440Z,991.58
2018-04-30T06:59:01.423Z,991.64
2018-04-30T07:00:01.407Z,991.60
2018-04-30T07:01:01.389Z,991.68
2018-04-30T07:02:01.370Z,991.72
2018-04-30T07:03:01.359Z,991.83
2018-04-30T07:04:01.336Z,991.90
2018-04-30T07:05:01.320Z,991.93
2018-04-30T07:06:01.310Z,991.94
2018-04-30T07:07:01.295Z,991.97
2018-04-30T07:08:01.288Z,991.89
2018-04-30T07:09:01.261Z,992.06
2018-04-30T07:10:01.237Z,992.01
2018-04-30T07:11:01.220Z,992.00
2018-04-30T07:12:01.203Z,992.02
2018-04-30T07:13:01.193Z,992.00
2018-04-30T07:14:01.165Z,992.04
2018-04-30T07:15:01.150Z,992.08
2018-04-30T07:16:01.131Z,992.09
2018-04-30T07:17:01.120Z,992.09
2018-04-30T07:18:01.100Z,992.19
2018-04-30T07:19:01.084Z,992.23
2018-04-30T07:20:01.151Z,992.22
2018-04-30T07:21:01.048Z,992.11
2018-04-30T07:22:01.036Z,992.11
2018-04-30T07:23:01.012Z,992.09
2018-04-30T07:24:00.996Z,992.07
2018-04-30T07:25:00.979Z,992.07
2018-04-30T07:26:00.960Z,992.10
2018-04-30T07:27:00.958Z,991.99
2018-04-30T07:28:00.926Z,991.98
2018-04-30T07:29:00.909Z,992.00
2018-04-30T07:30:00.892Z,992.01
2018-04-30T07:31:00.878Z,991.97
2018-04-30T07:32:00.873Z,991.99
2018-04-30T07:33:00.838Z,992.01
2018-04-30T07:34:00.834Z,992.05
2018-04-30T07:35:00.808Z,992.09
2018-04-30T07:36:00.802Z,992.09
2018-04-30T07:37:00.772Z,992.16
2018-04-30T07:38:00.754Z,992.21
2018-04-30T07:39:00.820Z,992.30
2018-04-30T07:40:00.720Z,992.37
2018-04-30T07:41:00.709Z,992.42
2018-04-30T07:42:00.689Z,992.38
2018-04-30T07:43:00.671Z,992.34
2018-04-30T07:44:00.661Z,992.48
2018-04-30T07:45:00.645Z,992.44
2018-04-30T07:46:00.620Z,992.52
2018-04-30T07:47:00.599Z,992.40
2018-04-30T07:48:00.583Z,992.49
2018-04-30T07:49:00.570Z,992.50
2018-04-30T07:50:00.550Z,992.51
2018-04-30T07:51:00.536Z,992.50
2018-04-30T07:52:00.518Z,992.58
2018-04-30T07:53:00.500Z,992.60
2018-04-30T07:54:00.490Z,992.62
2018-04-30T07:55:00.467Z,992.59
2018-04-30T07:56:00.450Z,992.65
2018-04-30T07:57:00.430Z,992.65
2018-04-30T07:58:00.412Z,992.67
2018-04-30T07:59:00.397Z,992.73
2018-04-30T08:00:00.380Z,992.69
2018-04-30T08:01:00.367Z,992.66
2018-04-30T08:02:00.350Z,992.68
2018-04-30T08:03:00.354Z,992.79
2018-04-30T08:04:00.311Z,992.77
2018-04-30T08:05:00.304Z,992.83
2018-04-30T08:06:00.279Z,992.79
2018-04-30T08:07:00.261Z,992.82
2018-04-30T08:08:00.243Z,992.85
2018-04-30T08:09:00.231Z,992.85
2018-04-30T08:10:00.217Z,992.89
2018-04-30T08:11:00.192Z,992.92
2018-04-30T08:12:00.177Z,992.91
2018-04-30T08:13:00.160Z,992.93
2018-04-30T08:14:00.139Z,992.94
2018-04-30T08:15:00.129Z,992.98
2018-04-30T08:16:00.106Z,992.96
2018-04-30T08:17:00.090Z,992.97
2018-04-30T08:18:00.074Z,992.97
2018-04-30T08:19:00.057Z,992.95
2018-04-30T08:20:00.040Z,992.92
2018-04-30T08:21:00.021Z,992.99
2018-04-30T08:22:00.003Z,993.01
2018-04-30T08:22:59.985Z,993.03
2018-04-30T08:23:59.973Z,993.05
2018-04-30T08:24:59.950Z,993.06
2018-04-30T08:25:59.932Z,993.15
2018-04-30T08:26:59.913Z,993.10
2018-04-30T08:27:59.903Z,993.19
2018-04-30T08:28:59.886Z,993.17
2018-04-30T08:29:59.868Z,993.22
2018-04-30T08:30:59.850Z,993.28
2018-04-30T08:31:59.830Z,993.27
2018-04-30T08:32:59.815Z,993.25
2018-04-30T08:33:59.799Z,993.34
2018-04-30T08:34:59.780Z,993.38
2018-04-30T08:35:59.761Z,993.36
2018-04-30T08:36:59.743Z,993.37
2018-04-30T08:37:59.731Z,993.41
2018-04-30T08:38:59.710Z,993.44
2018-04-30T08:39:59.693Z,993.40
2018-04-30T08:40:59.683Z,993.34
2018-04-30T08:41:59.664Z,993.45
2018-04-30T08:42:59.641Z,993.49
2018-04-30T08:43:59.622Z,993.58
2018-04-30T08:44:59.688Z,993.65
2018-04-30T08:45:59.591Z,993.61
2018-04-30T08:46:59.574Z,993.67
2018-04-30T08:47:59.557Z,993.65
2018-04-30T08:48:59.539Z,993.69
2018-04-30T08:49:59.520Z,993.74
2018-04-30T08:50:59.507Z,993.81
2018-04-30T08:51:59.519Z,993.77
2018-04-30T08:52:59.482Z,993.85
2018-04-30T08:53:59.454Z,993.80
2018-04-30T08:54:59.435Z,993.77
2018-04-30T08:55:59.424Z,993.77
2018-04-30T08:56:59.402Z,993.82
2018-04-30T08:57:59.396Z,993.78
2018-04-30T08:58:59.370Z,993.86
2018-04-30T08:59:59.348Z,993.88
2018-04-30T09:00:59.331Z,993.90
2018-04-30T09:01:59.342Z,993.87
2018-04-30T09:02:59.309Z,994.00
2018-04-30T09:03:59.288Z,994.01
2018-04-30T09:04:59.262Z,994.03
2018-04-30T09:05:59.246Z,993.99
2018-04-30T09:06:59.229Z,994.02
2018-04-30T09:07:59.212Z,993.99
2018-04-30T09:08:59.200Z,994.05
2018-04-30T09:09:59.173Z,994.08
2018-04-30T09:10:59.159Z,994.10
2018-04-30T09:11:59.140Z,994.06
2018-04-30T09:12:59.135Z,994.17
2018-04-30T09:13:59.110Z,994.13
2018-04-30T09:14:59.118Z,994.14
2018-04-30T09:15:59.083Z,994.25
2018-04-30T09:16:59.055Z,994.17
2018-04-30T09:17:59.037Z,994.24
2018-04-30T09:18:59.017Z,994.22
2018-04-30T09:19:59.001Z,994.11
2018-04-30T09:20:58.991Z,994.12
2018-04-30T09:21:58.965Z,993.96
2018-04-30T09:22:58.951Z,994.13
2018-04-30T09:23:58.942Z,994.08
2018-04-30T09:24:58.914Z,994.05
2018-04-30T09:25:58.899Z,993.99
2018-04-30T09:26:58.877Z,994.09
2018-04-30T09:27:58.858Z,994.03
2018-04-30T09:28:58.917Z,994.01
2018-04-30T09:29:58.827Z,994.02
2018-04-30T09:30:58.807Z,994.00
2018-04-30T09:31:58.789Z,993.95
2018-04-30T09:32:58.781Z,993.98
2018-04-30T09:33:58.751Z,993.96
2018-04-30T09:34:58.837Z,994.08
2018-04-30T09:35:58.725Z,994.05
2018-04-30T09:36:58.700Z,994.07
2018-04-30T09:37:58.693Z,994.06
2018-04-30T09:38:58.671Z,994.07
2018-04-30T09:39:58.654Z,994.15
2018-04-30T09:40:58.626Z,994.18
2018-04-30T09:41:58.610Z,994.19
2018-04-30T09:42:58.598Z,994.20
2018-04-30T09:43:58.578Z,994.22
2018-04-30T09:44:58.566Z,994.25
2018-04-30T09:45:58.540Z,994.27
2018-04-30T09:46:58.533Z,994.30
2018-04-30T09:47:58.510Z,994.30
2018-04-30T09:48:58.486Z,994.25
2018-04-30T09:49:58.470Z,994.27
2018-04-30T09:50:58.461Z,994.24
2018-04-30T09:51:58.435Z,994.24
2018-04-30T09:52:58.426Z,994.22
2018-04-30T09:53:58.406Z,994.24
2018-04-30T09:54:58.386Z,994.24
2018-04-30T09:55:58.364Z,994.23
2018-04-30T09:56:58.346Z,994.27
2018-04-30T09:57:58.348Z,994.24
2018-04-30T09:58:58.316Z,994.28
2018-04-30T09:59:58.299Z,994.33
2018-04-30T10:00:58.277Z,994.29
2018-04-30T10:01:58.262Z,994.30
2018-04-30T10:02:58.263Z,994.34
2018-04-30T10:03:58.230Z,994.29
2018-04-30T10:04:58.223Z,994.29
2018-04-30T10:05:58.190Z,994.32
2018-04-30T10:06:58.180Z,994.25
2018-04-30T10:07:58.161Z,994.31
2018-04-30T10:08:58.140Z,994.28
2018-04-30T10:09:58.128Z,994.29
2018-04-30T10:10:58.113Z,994.30
2018-04-30T10:11:58.091Z,994.30
2018-04-30T10:12:58.070Z,994.31
2018-04-30T10:13:58.054Z,994.30
2018-04-30T10:14:58.054Z,994.38
2018-04-30T10:15:58.022Z,994.43
2018-04-30T10:16:58.016Z,994.47
2018-04-30T10:17:57.993Z,994.52
2018-04-30T10:18:57.968Z,994.50
2018-04-30T10:19:57.950Z,994.51
2018-04-30T10:20:57.936Z,994.52
2018-04-30T10:21:57.923Z,994.53
2018-04-30T10:22:57.901Z,994.54
2018-04-30T10:23:57.887Z,994.53
2018-04-30T10:24:57.868Z,994.50
2018-04-30T10:25:57.849Z,994.47
2018-04-30T10:26:57.831Z,994.41
2018-04-30T10:27:57.814Z,994.42
2018-04-30T10:28:57.802Z,994.37
2018-04-30T10:29:57.789Z,994.35
2018-04-30T10:30:57.762Z,994.35
2018-04-30T10:31:57.751Z,994.28
2018-04-30T10:32:57.730Z,994.31
2018-04-30T10:33:57.711Z,994.32
2018-04-30T10:34:57.704Z,994.30
2018-04-30T10:35:57.675Z,994.30
2018-04-30T10:36:57.671Z,994.31
2018-04-30T10:37:57.702Z,994.34
2018-04-30T10:38:57.628Z,994.29
2018-04-30T10:39:57.612Z,994.34
2018-04-30T10:40:57.590Z,994.28
2018-04-30T10:41:57.573Z,994.23
2018-04-30T10:42:57.555Z,994.17
2018-04-30T10:43:57.540Z,994.10
2018-04-30T10:44:57.523Z,994.04
2018-04-30T10:45:57.542Z,993.98
2018-04-30T10:46:57.495Z,993.97
2018-04-30T10:47:57.471Z,993.96
2018-04-30T10:48:57.466Z,993.92
2018-04-30T10:49:57.447Z,993.90
2018-04-30T10:50:57.428Z,993.83
2018-04-30T10:51:57.407Z,993.79
2018-04-30T10:52:57.391Z,993.77
2018-04-30T10:53:57.371Z,993.77
2018-04-30T10:54:57.363Z,993.77
2018-04-30T10:55:57.337Z,993.74
2018-04-30T10:56:57.330Z,993.77
2018-04-30T10:57:57.313Z,993.76
2018-04-30T10:58:57.286Z,993.78
2018-04-30T10:59:57.269Z,993.77
2018-04-30T11:00:57.253Z,993.76
2018-04-30T11:01:57.248Z,993.73
2018-04-30T11:02:57.229Z,993.75
2018-04-30T11:03:57.221Z,993.78
2018-04-30T11:04:57.187Z,993.79
2018-04-30T11:05:57.172Z,993.85
2018-04-30T11:06:57.153Z,993.90
2018-04-30T11:07:57.132Z,994.00
2018-04-30T11:08:57.128Z,993.98
2018-04-30T11:09:57.103Z,993.98
2018-04-30T11:10:57.094Z,993.95
2018-04-30T11:11:57.072Z,994.00
2018-04-30T11:12:57.053Z,994.02
2018-04-30T11:13:57.038Z,994.01
2018-04-30T11:14:57.020Z,993.95
2018-04-30T11:15:57.001Z,994.00
2018-04-30T11:16:56.988Z,994.05
2018-04-30T11:17:56.967Z,994.08
2018-04-30T11:18:56.953Z,993.99
2018-04-30T11:19:56.938Z,994.02
2018-04-30T11:20:56.921Z,994.01
2018-04-30T11:21:56.903Z,993.96
2018-04-30T11:22:56.899Z,993.92
2018-04-30T11:23:56.872Z,993.95
2018-04-30T11:24:56.851Z,993.89
2018-04-30T11:25:56.836Z,993.92
2018-04-30T11:26:56.822Z,993.98
2018-04-30T11:27:56.805Z,993.99
2018-04-30T11:28:56.792Z,993.96
2018-04-30T11:29:56.772Z,993.96
2018-04-30T11:30:56.765Z,993.84
2018-04-30T11:31:56.742Z,993.91
2018-04-30T11:32:56.731Z,993.88
2018-04-30T11:33:56.712Z,993.92
2018-04-30T11:34:56.700Z,993.94
2018-04-30T11:35:56.674Z,994.06
2018-04-30T11:36:56.659Z,993.92
2018-04-30T11:37:56.643Z,994.02
2018-04-30T11:38:56.628Z,993.89
2018-04-30T11:39:56.629Z,993.92
2018-04-30T11:40:56.605Z,993.90
2018-04-30T11:41:56.578Z,993.92
2018-04-30T11:42:56.579Z,993.91
2018-04-30T11:43:56.549Z,993.86
2018-04-30T11:44:56.532Z,993.85
2018-04-30T11:45:56.518Z,993.87
2018-04-30T11:46:56.501Z,993.90
2018-04-30T11:47:56.482Z,993.97
2018-04-30T11:48:56.474Z,993.99
2018-04-30T11:49:56.451Z,993.99
2018-04-30T11:50:56.438Z,993.99
2018-04-30T11:51:56.430Z,993.96
2018-04-30T11:52:56.402Z,994.01
2018-04-30T11:53:56.392Z,994.12
2018-04-30T11:54:56.371Z,994.11
2018-04-30T11:55:56.362Z,994.10
2018-04-30T11:56:56.338Z,994.09
2018-04-30T11:57:56.328Z,994.13
2018-04-30T11:58:56.305Z,994.16
2018-04-30T11:59:56.290Z,994.15
2018-04-30T12:00:56.273Z,994.14
2018-04-30T12:01:56.261Z,994.14
2018-04-30T12:02:56.242Z,994.18
2018-04-30T12:03:56.224Z,994.19
2018-04-30T12:04:56.235Z,994.22
2018-04-30T12:05:56.195Z,994.14
2018-04-30T12:06:56.193Z,994.16
2018-04-30T12:07:56.164Z,994.17
2018-04-30T12:08:56.146Z,994.16
2018-04-30T12:09:56.133Z,994.25
2018-04-30T12:10:56.135Z,994.20
2018-04-30T12:11:56.102Z,994.25
2018-04-30T12:12:56.076Z,994.22
2018-04-30T12:13:56.061Z,994.21
2018-04-30T12:14:56.050Z,994.30
2018-04-30T12:15:56.029Z,994.25
2018-04-30T12:16:56.022Z,994.28
2018-04-30T12:17:56.017Z,994.28
2018-04-30T12:18:55.994Z,994.32
2018-04-30T12:19:55.963Z,994.42
2018-04-30T12:20:55.951Z,994.31
2018-04-30T12:21:55.960Z,994.29
2018-04-30T12:22:55.920Z,994.29
2018-04-30T12:23:55.908Z,994.30
2018-04-30T12:24:55.889Z,994.39
2018-04-30T12:25:55.870Z,994.36
2018-04-30T12:26:55.851Z,994.41
2018-04-30T12:27:55.833Z,994.38